sensor_id;sensor_type;location;lat;lon;timestamp;pressure;altitude;pressure_sealevel;temperature;humidity
82621;BME280;72291;55.002;-1.592;2024-03-23T00:55:59;99885.86;;;2.85;59.41
82621;BME280;72291;55.002;-1.592;2024-03-23T00:58:25;99884.46;;;2.38;59.74
82621;BME280;72291;55.002;-1.592;2024-03-23T01:00:50;99886.49;;;2.54;59.55
82621;BME280;72291;55.002;-1.592;2024-03-23T01:03:15;99873.51;;;2.06;60.75
82621;BME280;72291;55.002;-1.592;2024-03-23T01:05:40;99860.96;;;2.63;59.25
82621;BME280;72291;55.002;-1.592;2024-03-23T01:08:06;99855.05;;;2.70;58.99
82621;BME280;72291;55.002;-1.592;2024-03-23T01:10:31;99859.54;;;2.51;59.14
82621;BME280;72291;55.002;-1.592;2024-03-23T01:12:56;99848.61;;;3.00;58.42
82621;BME280;72291;55.002;-1.592;2024-03-23T01:15:21;99841.01;;;2.46;59.06
82621;BME280;72291;55.002;-1.592;2024-03-23T01:17:46;99838.21;;;2.39;60.99
82621;BME280;72291;55.002;-1.592;2024-03-23T01:20:12;99830.87;;;1.90;61.51
82621;BME280;72291;55.002;-1.592;2024-03-23T01:22:37;99814.84;;;3.17;59.49
82621;BME280;72291;55.002;-1.592;2024-03-23T01:25:02;99813.41;;;2.52;59.96
82621;BME280;72291;55.002;-1.592;2024-03-23T01:46:49;99794.43;;;2.65;58.15
82621;BME280;72291;55.002;-1.592;2024-03-23T01:51:40;99785.86;;;2.01;60.83
82621;BME280;72291;55.002;-1.592;2024-03-23T01:54:06;99788.31;;;2.49;59.58
82621;BME280;72291;55.002;-1.592;2024-03-23T01:56:32;99782.16;;;2.40;58.75
82621;BME280;72291;55.002;-1.592;2024-03-23T01:58:57;99793.08;;;2.68;58.93
82621;BME280;72291;55.002;-1.592;2024-03-23T02:01:26;99785.59;;;1.87;60.52
82621;BME280;72291;55.002;-1.592;2024-03-23T02:03:47;99781.39;;;1.87;59.67
82621;BME280;72291;55.002;-1.592;2024-03-23T02:06:13;99774.03;;;2.20;58.70
82621;BME280;72291;55.002;-1.592;2024-03-23T02:08:38;99767.89;;;3.02;58.52
82621;BME280;72291;55.002;-1.592;2024-03-23T02:11:03;99774.16;;;2.47;58.46
82621;BME280;72291;55.002;-1.592;2024-03-23T02:13:28;99770.96;;;2.36;59.02
82621;BME280;72291;55.002;-1.592;2024-03-23T02:15:53;99771.94;;;2.17;60.23
82621;BME280;72291;55.002;-1.592;2024-03-23T02:18:19;99763.16;;;2.14;60.00
82621;BME280;72291;55.002;-1.592;2024-03-23T02:20:44;99757.78;;;2.96;57.74
82621;BME280;72291;55.002;-1.592;2024-03-23T02:23:13;99757.38;;;2.27;58.46
82621;BME280;72291;55.002;-1.592;2024-03-23T02:25:34;99749.16;;;2.94;57.69
82621;BME280;72291;55.002;-1.592;2024-03-23T02:28:00;99746.83;;;3.30;56.74
82621;BME280;72291;55.002;-1.592;2024-03-23T02:30:25;99743.87;;;2.63;57.41
82621;BME280;72291;55.002;-1.592;2024-03-23T02:32:50;99749.29;;;2.35;59.09
82621;BME280;72291;55.002;-1.592;2024-03-23T02:35:15;99739.09;;;2.02;60.60
82621;BME280;72291;55.002;-1.592;2024-03-23T02:37:41;99731.92;;;3.01;58.67
82621;BME280;72291;55.002;-1.592;2024-03-23T02:40:07;99736.43;;;1.87;59.55
82621;BME280;72291;55.002;-1.592;2024-03-23T02:42:32;99728.73;;;2.92;58.43
82621;BME280;72291;55.002;-1.592;2024-03-23T02:44:59;99722.93;;;2.61;58.87
82621;BME280;72291;55.002;-1.592;2024-03-23T02:47:23;99719.24;;;2.72;58.67
82621;BME280;72291;55.002;-1.592;2024-03-23T02:49:48;99712.20;;;2.75;57.72
82621;BME280;72291;55.002;-1.592;2024-03-23T02:52:13;99709.25;;;2.82;57.73
82621;BME280;72291;55.002;-1.592;2024-03-23T02:54:38;99703.23;;;3.06;57.41
82621;BME280;72291;55.002;-1.592;2024-03-23T02:57:04;99704.95;;;2.11;57.63
82621;BME280;72291;55.002;-1.592;2024-03-23T02:59:29;99709.77;;;2.75;57.10
82621;BME280;72291;55.002;-1.592;2024-03-23T03:01:54;99702.81;;;2.51;58.84
82621;BME280;72291;55.002;-1.592;2024-03-23T03:04:19;99700.91;;;1.71;59.72
82621;BME280;72291;55.002;-1.592;2024-03-23T03:06:47;99706.80;;;2.04;58.80
82621;BME280;72291;55.002;-1.592;2024-03-23T03:09:11;99697.01;;;2.47;58.28
82621;BME280;72291;55.002;-1.592;2024-03-23T03:11:35;99690.40;;;3.04;56.90
82621;BME280;72291;55.002;-1.592;2024-03-23T03:14:00;99686.07;;;2.58;57.12
82621;BME280;72291;55.002;-1.592;2024-03-23T03:16:26;99692.70;;;2.58;58.08
82621;BME280;72291;55.002;-1.592;2024-03-23T03:18:51;99695.37;;;2.25;59.01
82621;BME280;72291;55.002;-1.592;2024-03-23T03:21:16;99688.92;;;2.37;58.85
82621;BME280;72291;55.002;-1.592;2024-03-23T03:23:41;99686.94;;;3.18;57.11
82621;BME280;72291;55.002;-1.592;2024-03-23T03:26:06;99686.13;;;2.83;56.88
82621;BME280;72291;55.002;-1.592;2024-03-23T03:28:32;99682.17;;;3.09;56.79
82621;BME280;72291;55.002;-1.592;2024-03-23T03:30:58;99674.47;;;3.37;55.45
82621;BME280;72291;55.002;-1.592;2024-03-23T03:33:22;99675.34;;;2.47;57.42
82621;BME280;72291;55.002;-1.592;2024-03-23T03:35:48;99681.86;;;2.55;57.89
82621;BME280;72291;55.002;-1.592;2024-03-23T03:38:13;99670.01;;;1.93;59.61
82621;BME280;72291;55.002;-1.592;2024-03-23T03:40:38;99672.76;;;1.81;60.20
82621;BME280;72291;55.002;-1.592;2024-03-23T03:43:03;99669.25;;;2.12;59.19
82621;BME280;72291;55.002;-1.592;2024-03-23T03:45:28;99659.43;;;2.56;58.98
82621;BME280;72291;55.002;-1.592;2024-03-23T03:47:54;99655.30;;;1.99;60.40
82621;BME280;72291;55.002;-1.592;2024-03-23T03:50:21;99651.06;;;2.43;58.57
82621;BME280;72291;55.002;-1.592;2024-03-23T03:52:44;99649.50;;;2.22;59.76
82621;BME280;72291;55.002;-1.592;2024-03-23T03:55:13;99642.64;;;2.09;60.15
82621;BME280;72291;55.002;-1.592;2024-03-23T03:57:35;99635.25;;;1.75;60.90
82621;BME280;72291;55.002;-1.592;2024-03-23T04:00:01;99628.56;;;1.64;61.35
82621;BME280;72291;55.002;-1.592;2024-03-23T04:02:25;99617.86;;;1.88;61.24
82621;BME280;72291;55.002;-1.592;2024-03-23T04:04:50;99624.95;;;2.27;60.95
82621;BME280;72291;55.002;-1.592;2024-03-23T04:07:15;99616.11;;;1.88;60.79
82621;BME280;72291;55.002;-1.592;2024-03-23T04:09:41;99622.39;;;1.42;60.80
82621;BME280;72291;55.002;-1.592;2024-03-23T04:12:07;99627.73;;;2.45;59.75
82621;BME280;72291;55.002;-1.592;2024-03-23T04:14:31;99625.80;;;1.55;60.28
82621;BME280;72291;55.002;-1.592;2024-03-23T04:16:56;99626.83;;;2.03;59.63
82621;BME280;72291;55.002;-1.592;2024-03-23T04:19:22;99616.77;;;2.52;59.09
82621;BME280;72291;55.002;-1.592;2024-03-23T04:21:48;99613.65;;;2.18;59.48
82621;BME280;72291;55.002;-1.592;2024-03-23T04:24:12;99599.87;;;2.19;60.28
82621;BME280;72291;55.002;-1.592;2024-03-23T04:26:41;99592.54;;;1.86;60.58
82621;BME280;72291;55.002;-1.592;2024-03-23T04:29:03;99588.13;;;1.78;59.66
82621;BME280;72291;55.002;-1.592;2024-03-23T04:31:28;99584.00;;;2.55;58.42
82621;BME280;72291;55.002;-1.592;2024-03-23T04:33:54;99590.79;;;2.26;59.03
82621;BME280;72291;55.002;-1.592;2024-03-23T04:36:19;99590.26;;;2.23;59.02
82621;BME280;72291;55.002;-1.592;2024-03-23T04:38:46;99595.19;;;2.57;58.46
82621;BME280;72291;55.002;-1.592;2024-03-23T04:41:09;99600.45;;;2.13;59.23
82621;BME280;72291;55.002;-1.592;2024-03-23T04:43:34;99590.49;;;2.59;56.92
82621;BME280;72291;55.002;-1.592;2024-03-23T04:46:00;99589.45;;;2.99;56.61
82621;BME280;72291;55.002;-1.592;2024-03-23T04:48:25;99584.16;;;2.28;58.31
82621;BME280;72291;55.002;-1.592;2024-03-23T04:50:55;99587.62;;;1.70;58.79
82621;BME280;72291;55.002;-1.592;2024-03-23T04:53:15;99589.22;;;2.56;58.51
82621;BME280;72291;55.002;-1.592;2024-03-23T04:55:41;99594.57;;;2.05;58.76
82621;BME280;72291;55.002;-1.592;2024-03-23T04:58:06;99586.65;;;1.86;59.28
82621;BME280;72291;55.002;-1.592;2024-03-23T05:00:31;99584.05;;;2.44;58.30
82621;BME280;72291;55.002;-1.592;2024-03-23T05:02:56;99581.84;;;2.47;58.69
82621;BME280;72291;55.002;-1.592;2024-03-23T05:05:22;99582.75;;;1.73;60.93
82621;BME280;72291;55.002;-1.592;2024-03-23T05:07:47;99576.58;;;1.28;60.49
82621;BME280;72291;55.002;-1.592;2024-03-23T05:10:13;99564.11;;;1.81;58.61
82621;BME280;72291;55.002;-1.592;2024-03-23T05:12:38;99568.48;;;2.16;57.74
82621;BME280;72291;55.002;-1.592;2024-03-23T05:15:04;99565.59;;;1.99;58.09
82621;BME280;72291;55.002;-1.592;2024-03-23T05:17:28;99566.21;;;1.61;59.35
82621;BME280;72291;55.002;-1.592;2024-03-23T05:19:54;99555.95;;;2.43;57.29
82621;BME280;72291;55.002;-1.592;2024-03-23T05:22:19;99552.32;;;1.97;57.63
82621;BME280;72291;55.002;-1.592;2024-03-23T05:24:45;99537.21;;;1.72;59.56
82621;BME280;72291;55.002;-1.592;2024-03-23T05:27:10;99533.96;;;1.62;60.08
82621;BME280;72291;55.002;-1.592;2024-03-23T05:29:35;99531.73;;;1.62;59.62
82621;BME280;72291;55.002;-1.592;2024-03-23T05:32:00;99521.63;;;2.30;58.15
82621;BME280;72291;55.002;-1.592;2024-03-23T05:34:26;99526.39;;;2.75;58.38
82621;BME280;72291;55.002;-1.592;2024-03-23T05:36:51;99533.39;;;2.17;58.41
82621;BME280;72291;55.002;-1.592;2024-03-23T05:39:16;99533.02;;;2.20;58.33
82621;BME280;72291;55.002;-1.592;2024-03-23T05:41:41;99533.67;;;2.73;56.86
82621;BME280;72291;55.002;-1.592;2024-03-23T05:44:06;99538.00;;;1.80;59.68
82621;BME280;72291;55.002;-1.592;2024-03-23T05:46:32;99538.47;;;1.78;59.27
82621;BME280;72291;55.002;-1.592;2024-03-23T05:49:01;99544.28;;;1.70;60.21
82621;BME280;72291;55.002;-1.592;2024-03-23T05:51:22;99537.72;;;1.39;60.00
82621;BME280;72291;55.002;-1.592;2024-03-23T05:53:47;99529.85;;;1.70;58.69
82621;BME280;72291;55.002;-1.592;2024-03-23T05:56:13;99524.75;;;2.45;58.02
82621;BME280;72291;55.002;-1.592;2024-03-23T05:58:38;99510.94;;;2.08;58.97
82621;BME280;72291;55.002;-1.592;2024-03-23T06:01:03;99522.33;;;1.34;60.81
82621;BME280;72291;55.002;-1.592;2024-03-23T06:03:29;99508.45;;;1.81;59.95
82621;BME280;72291;55.002;-1.592;2024-03-23T06:05:54;99513.00;;;1.47;61.14
82621;BME280;72291;55.002;-1.592;2024-03-23T06:08:19;99506.68;;;1.39;59.57
82621;BME280;72291;55.002;-1.592;2024-03-23T06:10:45;99492.35;;;2.50;58.34
82621;BME280;72291;55.002;-1.592;2024-03-23T06:13:10;99495.67;;;2.17;58.41
82621;BME280;72291;55.002;-1.592;2024-03-23T06:15:39;99483.40;;;2.57;57.40
82621;BME280;72291;55.002;-1.592;2024-03-23T06:18:00;99481.20;;;2.05;58.98
82621;BME280;72291;55.002;-1.592;2024-03-23T06:20:25;99481.91;;;2.73;57.64
82621;BME280;72291;55.002;-1.592;2024-03-23T06:22:50;99483.23;;;2.11;58.73
82621;BME280;72291;55.002;-1.592;2024-03-23T06:25:16;99482.86;;;3.20;56.91
82621;BME280;72291;55.002;-1.592;2024-03-23T06:27:41;99479.02;;;1.62;59.20
82621;BME280;72291;55.002;-1.592;2024-03-23T06:30:07;99474.70;;;1.94;59.22
82621;BME280;72291;55.002;-1.592;2024-03-23T06:32:32;99468.79;;;1.89;59.87
82621;BME280;72291;55.002;-1.592;2024-03-23T06:34:58;99462.18;;;1.81;59.59
82621;BME280;72291;55.002;-1.592;2024-03-23T06:37:23;99455.11;;;1.95;59.66
82621;BME280;72291;55.002;-1.592;2024-03-23T06:39:48;99459.28;;;1.58;61.84
82621;BME280;72291;55.002;-1.592;2024-03-23T06:42:13;99467.78;;;1.67;61.56
82621;BME280;72291;55.002;-1.592;2024-03-23T06:44:38;99452.36;;;2.10;61.45
82621;BME280;72291;55.002;-1.592;2024-03-23T06:47:04;99447.37;;;1.72;61.81
82621;BME280;72291;55.002;-1.592;2024-03-23T06:49:29;99458.84;;;1.81;61.14
82621;BME280;72291;55.002;-1.592;2024-03-23T06:51:54;99442.00;;;2.00;60.53
82621;BME280;72291;55.002;-1.592;2024-03-23T06:54:20;99433.05;;;2.10;60.10
82621;BME280;72291;55.002;-1.592;2024-03-23T06:56:45;99424.38;;;2.33;58.86
82621;BME280;72291;55.002;-1.592;2024-03-23T06:59:10;99432.63;;;1.83;59.61
82621;BME280;72291;55.002;-1.592;2024-03-23T07:01:35;99427.94;;;2.49;59.12
82621;BME280;72291;55.002;-1.592;2024-03-23T07:04:05;99425.93;;;1.34;59.72
82621;BME280;72291;55.002;-1.592;2024-03-23T07:06:26;99422.03;;;2.42;58.86
82621;BME280;72291;55.002;-1.592;2024-03-23T07:08:52;99428.99;;;2.47;57.41
82621;BME280;72291;55.002;-1.592;2024-03-23T07:11:19;99433.89;;;1.64;60.02
82621;BME280;72291;55.002;-1.592;2024-03-23T07:13:41;99425.19;;;1.70;60.62
82621;BME280;72291;55.002;-1.592;2024-03-23T07:16:12;99433.81;;;2.10;60.51
82621;BME280;72291;55.002;-1.592;2024-03-23T07:18:32;99441.82;;;2.02;60.58
82621;BME280;72291;55.002;-1.592;2024-03-23T07:20:57;99434.16;;;2.04;59.19
82621;BME280;72291;55.002;-1.592;2024-03-23T07:23:22;99436.32;;;2.34;57.67
82621;BME280;72291;55.002;-1.592;2024-03-23T07:25:57;99442.44;;;3.22;57.02
82621;BME280;72291;55.002;-1.592;2024-03-23T07:28:13;99440.54;;;2.93;56.30
82621;BME280;72291;55.002;-1.592;2024-03-23T07:30:38;99442.69;;;2.78;55.93
82621;BME280;72291;55.002;-1.592;2024-03-23T07:33:04;99443.95;;;2.97;55.60
82621;BME280;72291;55.002;-1.592;2024-03-23T07:35:29;99446.09;;;3.13;55.62
82621;BME280;72291;55.002;-1.592;2024-03-23T07:37:54;99436.00;;;2.87;55.52
82621;BME280;72291;55.002;-1.592;2024-03-23T07:40:19;99441.34;;;3.05;55.46
82621;BME280;72291;55.002;-1.592;2024-03-23T07:42:44;99445.70;;;3.05;55.89
82621;BME280;72291;55.002;-1.592;2024-03-23T07:45:10;99441.51;;;3.06;56.60
82621;BME280;72291;55.002;-1.592;2024-03-23T07:47:35;99443.01;;;2.91;57.19
82621;BME280;72291;55.002;-1.592;2024-03-23T07:50:01;99442.95;;;2.70;57.02
82621;BME280;72291;55.002;-1.592;2024-03-23T07:52:28;99441.67;;;2.41;57.02
82621;BME280;72291;55.002;-1.592;2024-03-23T07:54:52;99433.68;;;2.66;57.21
82621;BME280;72291;55.002;-1.592;2024-03-23T07:57:17;99436.52;;;3.18;55.81
82621;BME280;72291;55.002;-1.592;2024-03-23T07:59:42;99437.61;;;2.91;56.75
82621;BME280;72291;55.002;-1.592;2024-03-23T08:02:08;99435.34;;;3.03;56.94
82621;BME280;72291;55.002;-1.592;2024-03-23T08:04:33;99435.56;;;3.18;56.50
82621;BME280;72291;55.002;-1.592;2024-03-23T08:06:59;99426.36;;;2.51;56.42
82621;BME280;72291;55.002;-1.592;2024-03-23T08:09:23;99436.82;;;3.11;56.09
82621;BME280;72291;55.002;-1.592;2024-03-23T08:11:48;99440.06;;;2.65;57.45
82621;BME280;72291;55.002;-1.592;2024-03-23T08:14:14;99433.87;;;3.03;56.11
82621;BME280;72291;55.002;-1.592;2024-03-23T08:16:39;99449.21;;;3.49;55.65
82621;BME280;72291;55.002;-1.592;2024-03-23T08:19:05;99438.32;;;3.11;54.66
82621;BME280;72291;55.002;-1.592;2024-03-23T08:21:30;99441.17;;;3.11;54.78
82621;BME280;72291;55.002;-1.592;2024-03-23T08:23:55;99441.07;;;4.02;53.53
82621;BME280;72291;55.002;-1.592;2024-03-23T08:26:20;99443.37;;;3.60;53.81
82621;BME280;72291;55.002;-1.592;2024-03-23T08:28:46;99434.33;;;3.81;53.54
82621;BME280;72291;55.002;-1.592;2024-03-23T08:31:12;99435.80;;;3.27;54.80
82621;BME280;72291;55.002;-1.592;2024-03-23T08:33:36;99434.70;;;3.36;54.21
82621;BME280;72291;55.002;-1.592;2024-03-23T08:36:03;99438.77;;;3.10;55.18
82621;BME280;72291;55.002;-1.592;2024-03-23T08:38:27;99433.34;;;3.88;53.41
82621;BME280;72291;55.002;-1.592;2024-03-23T08:40:56;99437.53;;;4.18;52.70
82621;BME280;72291;55.002;-1.592;2024-03-23T08:43:17;99445.08;;;3.59;54.05
82621;BME280;72291;55.002;-1.592;2024-03-23T08:45:42;99435.58;;;3.97;53.06
82621;BME280;72291;55.002;-1.592;2024-03-23T08:48:07;99435.37;;;3.90;53.10
82621;BME280;72291;55.002;-1.592;2024-03-23T08:50:33;99434.76;;;4.20;53.21
82621;BME280;72291;55.002;-1.592;2024-03-23T08:53:03;99424.87;;;3.33;54.62
82621;BME280;72291;55.002;-1.592;2024-03-23T08:55:23;99421.11;;;3.81;53.80
82621;BME280;72291;55.002;-1.592;2024-03-23T08:57:49;99402.09;;;3.35;55.86
82621;BME280;72291;55.002;-1.592;2024-03-23T09:00:15;99402.05;;;3.73;55.01
82621;BME280;72291;55.002;-1.592;2024-03-23T09:02:39;99415.18;;;3.20;56.05
82621;BME280;72291;55.002;-1.592;2024-03-23T09:05:06;99432.92;;;3.23;55.06
82621;BME280;72291;55.002;-1.592;2024-03-23T09:07:30;99438.22;;;3.40;55.94
82621;BME280;72291;55.002;-1.592;2024-03-23T09:09:55;99418.67;;;3.06;56.04
82621;BME280;72291;55.002;-1.592;2024-03-23T09:12:21;99438.34;;;2.76;56.02
82621;BME280;72291;55.002;-1.592;2024-03-23T09:14:46;99424.44;;;3.38;55.34
82621;BME280;72291;55.002;-1.592;2024-03-23T09:17:12;99424.43;;;3.33;54.08
82621;BME280;72291;55.002;-1.592;2024-03-23T09:19:37;99404.26;;;3.27;53.92
82621;BME280;72291;55.002;-1.592;2024-03-23T09:22:02;99419.39;;;3.43;54.30
82621;BME280;72291;55.002;-1.592;2024-03-23T09:24:28;99409.90;;;3.92;52.85
82621;BME280;72291;55.002;-1.592;2024-03-23T09:26:54;99405.77;;;3.81;52.97
82621;BME280;72291;55.002;-1.592;2024-03-23T09:29:19;99413.11;;;4.36;52.05
82621;BME280;72291;55.002;-1.592;2024-03-23T09:36:37;99390.38;;;4.00;51.52
82621;BME280;72291;55.002;-1.592;2024-03-23T09:39:02;99405.16;;;4.45;52.41
82621;BME280;72291;55.002;-1.592;2024-03-23T09:41:27;99392.19;;;3.75;53.76
82621;BME280;72291;55.002;-1.592;2024-03-23T09:43:53;99384.51;;;4.21;52.68
82621;BME280;72291;55.002;-1.592;2024-03-23T09:46:17;99376.06;;;4.11;52.75
82621;BME280;72291;55.002;-1.592;2024-03-23T09:48:43;99374.72;;;4.50;52.30
82621;BME280;72291;55.002;-1.592;2024-03-23T09:51:08;99377.14;;;5.08;51.04
82621;BME280;72291;55.002;-1.592;2024-03-23T09:53:33;99387.12;;;4.73;51.31
82621;BME280;72291;55.002;-1.592;2024-03-23T09:55:58;99381.08;;;4.16;51.91
82621;BME280;72291;55.002;-1.592;2024-03-23T09:58:23;99355.48;;;4.67;51.45
82621;BME280;72291;55.002;-1.592;2024-03-23T10:00:49;99380.65;;;4.74;51.42
82621;BME280;72291;55.002;-1.592;2024-03-23T10:03:15;99388.17;;;4.16;52.71
82621;BME280;72291;55.002;-1.592;2024-03-23T10:05:40;99387.57;;;5.16;50.60
82621;BME280;72291;55.002;-1.592;2024-03-23T10:08:18;99391.29;;;4.86;50.54
82621;BME280;72291;55.002;-1.592;2024-03-23T10:10:30;99373.97;;;5.77;49.50
82621;BME280;72291;55.002;-1.592;2024-03-23T10:12:55;99382.43;;;5.40;49.81
82621;BME280;72291;55.002;-1.592;2024-03-23T10:15:23;99403.19;;;4.81;50.45
82621;BME280;72291;55.002;-1.592;2024-03-23T10:17:48;99385.54;;;4.92;50.08
82621;BME280;72291;55.002;-1.592;2024-03-23T10:20:12;99374.13;;;5.66;48.04
82621;BME280;72291;55.002;-1.592;2024-03-23T10:22:37;99386.17;;;5.10;49.22
82621;BME280;72291;55.002;-1.592;2024-03-23T10:25:08;99378.43;;;5.05;49.60
82621;BME280;72291;55.002;-1.592;2024-03-23T10:27:27;99374.03;;;4.62;50.66
82621;BME280;72291;55.002;-1.592;2024-03-23T10:29:56;99363.64;;;5.07;49.67
82621;BME280;72291;55.002;-1.592;2024-03-23T10:32:18;99360.58;;;5.09;48.67
82621;BME280;72291;55.002;-1.592;2024-03-23T10:34:43;99373.36;;;4.97;49.88
82621;BME280;72291;55.002;-1.592;2024-03-23T10:37:08;99373.84;;;5.53;50.03
82621;BME280;72291;55.002;-1.592;2024-03-23T10:39:35;99376.81;;;5.54;48.88
82621;BME280;72291;55.002;-1.592;2024-03-23T10:42:00;99368.06;;;4.93;50.19
82621;BME280;72291;55.002;-1.592;2024-03-23T10:44:23;99363.73;;;4.55;51.02
82621;BME280;72291;55.002;-1.592;2024-03-23T10:46:48;99361.63;;;5.50;49.93
82621;BME280;72291;55.002;-1.592;2024-03-23T10:49:13;99368.58;;;4.89;51.82
82621;BME280;72291;55.002;-1.592;2024-03-23T10:51:39;99365.10;;;5.28;50.50
82621;BME280;72291;55.002;-1.592;2024-03-23T10:54:04;99365.31;;;4.93;51.17
82621;BME280;72291;55.002;-1.592;2024-03-23T10:56:31;99374.29;;;4.59;51.86
82621;BME280;72291;55.002;-1.592;2024-03-23T10:58:54;99365.08;;;4.84;52.65
82621;BME280;72291;55.002;-1.592;2024-03-23T11:01:19;99356.42;;;5.65;50.97
82621;BME280;72291;55.002;-1.592;2024-03-23T11:03:46;99370.94;;;5.95;49.08
82621;BME280;72291;55.002;-1.592;2024-03-23T11:06:10;99354.09;;;6.72;47.79
82621;BME280;72291;55.002;-1.592;2024-03-23T11:08:36;99344.03;;;6.98;47.28
82621;BME280;72291;55.002;-1.592;2024-03-23T11:11:17;99338.97;;;7.06;46.95
82621;BME280;72291;55.002;-1.592;2024-03-23T11:13:26;99338.94;;;6.73;47.31
82621;BME280;72291;55.002;-1.592;2024-03-23T11:16:00;99328.94;;;6.76;47.30
82621;BME280;72291;55.002;-1.592;2024-03-23T11:18:21;99306.77;;;6.62;48.56
82621;BME280;72291;55.002;-1.592;2024-03-23T11:20:41;99323.40;;;7.27;47.40
82621;BME280;72291;55.002;-1.592;2024-03-23T11:23:06;99310.27;;;7.67;47.38
82621;BME280;72291;55.002;-1.592;2024-03-23T11:25:31;99311.29;;;7.54;46.00
82621;BME280;72291;55.002;-1.592;2024-03-23T11:27:57;99306.87;;;7.71;46.87
82621;BME280;72291;55.002;-1.592;2024-03-23T11:30:23;99313.69;;;8.62;44.33
82621;BME280;72291;55.002;-1.592;2024-03-23T11:32:47;99340.44;;;8.32;45.20
82621;BME280;72291;55.002;-1.592;2024-03-23T11:35:27;99318.17;;;9.43;42.70
82621;BME280;72291;55.002;-1.592;2024-03-23T11:37:38;99332.05;;;8.72;43.73
82621;BME280;72291;55.002;-1.592;2024-03-23T11:40:17;99347.80;;;7.57;45.48
82621;BME280;72291;55.002;-1.592;2024-03-23T11:42:27;99342.59;;;6.99;47.23
82621;BME280;72291;55.002;-1.592;2024-03-23T11:44:52;99353.37;;;5.87;49.73
82621;BME280;72291;55.002;-1.592;2024-03-23T11:47:17;99367.20;;;6.47;50.09
82621;BME280;72291;55.002;-1.592;2024-03-23T11:49:43;99354.53;;;6.86;49.26
82621;BME280;72291;55.002;-1.592;2024-03-23T11:52:08;99346.23;;;7.62;46.76
82621;BME280;72291;55.002;-1.592;2024-03-23T11:54:34;99352.48;;;7.73;46.53
82621;BME280;72291;55.002;-1.592;2024-03-23T11:57:02;99354.16;;;7.59;46.42
82621;BME280;72291;55.002;-1.592;2024-03-23T11:59:33;99343.89;;;6.70;49.23
82621;BME280;72291;55.002;-1.592;2024-03-23T12:01:49;99344.47;;;6.07;50.35
82621;BME280;72291;55.002;-1.592;2024-03-23T12:04:26;99363.38;;;6.42;50.50
82621;BME280;72291;55.002;-1.592;2024-03-23T12:06:40;99357.15;;;6.04;50.22
82621;BME280;72291;55.002;-1.592;2024-03-23T12:09:06;99368.39;;;6.64;49.75
82621;BME280;72291;55.002;-1.592;2024-03-23T12:11:30;99358.52;;;6.23;51.25
82621;BME280;72291;55.002;-1.592;2024-03-23T12:13:59;99372.99;;;6.23;50.81
82621;BME280;72291;55.002;-1.592;2024-03-23T12:16:20;99353.93;;;6.04;50.64
82621;BME280;72291;55.002;-1.592;2024-03-23T12:18:47;99365.47;;;6.34;50.32
82621;BME280;72291;55.002;-1.592;2024-03-23T12:21:12;99373.18;;;6.37;50.89
82621;BME280;72291;55.002;-1.592;2024-03-23T12:23:38;99374.16;;;6.38;51.35
82621;BME280;72291;55.002;-1.592;2024-03-23T12:26:01;99384.96;;;5.84;52.50
82621;BME280;72291;55.002;-1.592;2024-03-23T12:28:26;99365.45;;;5.42;52.47
82621;BME280;72291;55.002;-1.592;2024-03-23T12:30:52;99365.59;;;5.68;52.24
82621;BME280;72291;55.002;-1.592;2024-03-23T12:33:16;99359.52;;;6.67;51.06
82621;BME280;72291;55.002;-1.592;2024-03-23T12:35:41;99355.13;;;6.87;50.91
82621;BME280;72291;55.002;-1.592;2024-03-23T12:38:06;99352.88;;;6.98;50.47
82621;BME280;72291;55.002;-1.592;2024-03-23T12:40:33;99340.37;;;7.10;50.10
82621;BME280;72291;55.002;-1.592;2024-03-23T12:42:57;99353.26;;;6.59;51.12
82621;BME280;72291;55.002;-1.592;2024-03-23T12:45:22;99331.89;;;6.62;50.89
82621;BME280;72291;55.002;-1.592;2024-03-23T12:47:48;99341.38;;;6.02;52.51
82621;BME280;72291;55.002;-1.592;2024-03-23T12:50:13;99345.02;;;6.29;53.30
82621;BME280;72291;55.002;-1.592;2024-03-23T12:52:38;99331.95;;;6.22;52.54
82621;BME280;72291;55.002;-1.592;2024-03-23T12:55:04;99338.63;;;6.38;52.26
82621;BME280;72291;55.002;-1.592;2024-03-23T12:57:28;99330.13;;;6.46;52.96
82621;BME280;72291;55.002;-1.592;2024-03-23T12:59:54;99336.34;;;5.90;53.45
82621;BME280;72291;55.002;-1.592;2024-03-23T13:02:19;99349.94;;;6.12;52.75
82621;BME280;72291;55.002;-1.592;2024-03-23T13:04:46;99348.21;;;6.79;51.76
82621;BME280;72291;55.002;-1.592;2024-03-23T13:07:10;99344.66;;;5.92;53.40
82621;BME280;72291;55.002;-1.592;2024-03-23T13:09:45;99339.18;;;6.57;51.32
82621;BME280;72291;55.002;-1.592;2024-03-23T13:12:01;99335.65;;;6.51;51.60
82621;BME280;72291;55.002;-1.592;2024-03-23T13:14:26;99335.54;;;7.19;50.72
82621;BME280;72291;55.002;-1.592;2024-03-23T13:16:52;99336.41;;;7.22;51.21
82621;BME280;72291;55.002;-1.592;2024-03-23T13:19:16;99336.11;;;7.21;51.02
82621;BME280;72291;55.002;-1.592;2024-03-23T13:21:42;99336.44;;;7.44;50.43
82621;BME280;72291;55.002;-1.592;2024-03-23T13:24:07;99350.34;;;7.07;51.10
82621;BME280;72291;55.002;-1.592;2024-03-23T13:26:32;99335.74;;;6.78;51.70
82621;BME280;72291;55.002;-1.592;2024-03-23T13:28:58;99311.53;;;6.82;52.87
82621;BME280;72291;55.002;-1.592;2024-03-23T13:31:23;99320.84;;;6.66;52.83
82621;BME280;72291;55.002;-1.592;2024-03-23T13:36:13;99317.37;;;6.87;51.56
82621;BME280;72291;55.002;-1.592;2024-03-23T13:38:39;99319.52;;;6.84;52.89
82621;BME280;72291;55.002;-1.592;2024-03-23T13:41:04;99328.56;;;6.77;53.02
82621;BME280;72291;55.002;-1.592;2024-03-23T13:43:29;99335.35;;;7.08;52.99
82621;BME280;72291;55.002;-1.592;2024-03-23T13:45:56;99325.41;;;7.42;52.25
82621;BME280;72291;55.002;-1.592;2024-03-23T13:48:20;99336.34;;;7.45;52.05
82621;BME280;72291;55.002;-1.592;2024-03-23T13:50:44;99330.19;;;6.83;53.57
82621;BME280;72291;55.002;-1.592;2024-03-23T13:53:10;99329.92;;;7.22;52.08
82621;BME280;72291;55.002;-1.592;2024-03-23T13:55:35;99329.25;;;7.58;50.72
82621;BME280;72291;55.002;-1.592;2024-03-23T13:58:00;99335.66;;;7.16;52.94
82621;BME280;72291;55.002;-1.592;2024-03-23T14:00:25;99323.97;;;6.50;54.95
82621;BME280;72291;55.002;-1.592;2024-03-23T14:02:50;99329.45;;;6.12;55.93
82621;BME280;72291;55.002;-1.592;2024-03-23T14:05:16;99322.06;;;6.64;54.90
82621;BME280;72291;55.002;-1.592;2024-03-23T14:07:40;99318.20;;;6.61;54.96
82621;BME280;72291;55.002;-1.592;2024-03-23T14:10:07;99312.46;;;5.57;56.79
82621;BME280;72291;55.002;-1.592;2024-03-23T14:12:31;99315.89;;;6.04;56.52